createdAt,value
2017-06-11T00:01:03.758Z,72.40
2017-06-11T00:03:30.527Z,72.40
2017-06-11T00:05:57.281Z,72.30
2017-06-11T00:08:23.707Z,72.50
2017-06-11T00:10:50.642Z,72.30
2017-06-11T00:13:17.403Z,72.00
2017-06-11T00:15:43.867Z,72.20
2017-06-11T00:18:10.353Z,72.50
2017-06-11T00:20:36.800Z,72.70
2017-06-11T00:23:03.291Z,72.80
2017-06-11T00:25:30.293Z,73.00
2017-06-11T00:27:57.064Z,73.10
2017-06-11T00:30:24.154Z,73.20
2017-06-11T00:32:50.772Z,73.50
2017-06-11T00:35:17.210Z,73.80
2017-06-11T00:37:43.656Z,73.80
2017-06-11T00:40:10.807Z,74.00
2017-06-11T00:42:37.236Z,73.90
2017-06-11T00:45:03.748Z,73.70
2017-06-11T00:47:30.177Z,73.90
2017-06-11T00:49:57.111Z,74.80
2017-06-11T00:52:23.628Z,74.30
2017-06-11T00:54:50.185Z,74.10
2017-06-11T00:57:16.828Z,74.10
2017-06-11T00:59:43.974Z,74.10
2017-06-11T01:02:10.371Z,74.10
2017-06-11T01:04:36.814Z,73.90
2017-06-11T01:07:03.966Z,74.40
2017-06-11T01:09:30.539Z,74.20
2017-06-11T01:11:57.752Z,74.40
2017-06-11T01:14:24.193Z,74.40
2017-06-11T01:16:50.649Z,74.40
2017-06-11T01:19:17.080Z,74.60
2017-06-11T01:21:43.539Z,74.50
2017-06-11T01:24:11.034Z,75.00
2017-06-11T01:26:38.087Z,74.90
2017-06-11T01:29:04.988Z,75.00
2017-06-11T01:31:31.837Z,74.90
2017-06-11T01:33:58.392Z,75.00
2017-06-11T01:36:25.030Z,75.00
2017-06-11T01:38:51.754Z,75.30
2017-06-11T01:41:18.233Z,75.60
2017-06-11T01:43:45.547Z,75.60
2017-06-11T01:46:12.206Z,75.60
2017-06-11T01:48:39.481Z,75.20
2017-06-11T01:51:06.858Z,75.80
2017-06-11T01:53:33.331Z,75.60
2017-06-11T01:55:59.747Z,76.10
2017-06-11T01:58:26.218Z,76.30
2017-06-11T02:00:53.381Z,76.30
2017-06-11T02:03:20.564Z,76.10
2017-06-11T02:05:47.738Z,76.10
2017-06-11T02:08:15.016Z,76.10
2017-06-11T02:10:41.512Z,76.10
2017-06-11T02:13:07.941Z,76.10
2017-06-11T02:15:35.032Z,76.00
2017-06-11T02:18:01.978Z,76.00
2017-06-11T02:20:28.626Z,75.90
2017-06-11T02:22:55.184Z,76.00
2017-06-11T02:25:21.743Z,75.80
2017-06-11T02:27:48.186Z,75.80
2017-06-11T02:30:15.386Z,75.90
2017-06-11T02:32:42.645Z,75.70
2017-06-11T02:35:09.101Z,75.70
2017-06-11T02:37:35.660Z,75.70
2017-06-11T02:40:02.360Z,75.80
2017-06-11T02:42:28.819Z,75.80
2017-06-11T02:44:55.256Z,75.80
2017-06-11T02:47:21.698Z,75.80
2017-06-11T02:49:48.129Z,75.80
2017-06-11T02:52:15.315Z,75.80
2017-06-11T02:54:41.770Z,75.30
2017-06-11T02:57:08.564Z,75.50
2017-06-11T02:59:35.005Z,75.70
2017-06-11T03:02:01.460Z,75.70
2017-06-11T03:04:27.911Z,75.70
2017-06-11T03:06:54.376Z,75.70
2017-06-11T03:09:21.071Z,75.30
2017-06-11T03:12:08.344Z,75.30
2017-06-11T03:14:34.780Z,75.10
2017-06-11T03:17:02.080Z,75.20
2017-06-11T03:19:28.578Z,75.10
2017-06-11T03:21:55.806Z,75.20
2017-06-11T03:24:22.298Z,75.10
2017-06-11T03:26:48.819Z,75.20
2017-06-11T03:29:16.231Z,75.20
2017-06-11T03:31:42.708Z,75.30
2017-06-11T03:34:09.127Z,75.10
2017-06-11T03:36:35.543Z,75.10
2017-06-11T03:39:02.851Z,74.90
2017-06-11T03:41:29.327Z,74.80
2017-06-11T03:43:55.781Z,74.80
2017-06-11T03:46:22.235Z,75.00
2017-06-11T03:48:48.667Z,74.80
2017-06-11T03:51:16.244Z,74.70
2017-06-11T03:53:42.641Z,75.50
2017-06-11T03:56:09.257Z,76.40
2017-06-11T03:58:35.662Z,73.40
2017-06-11T04:01:03.232Z,71.00
2017-06-11T04:03:29.696Z,70.90
2017-06-11T04:05:56.146Z,70.60
2017-06-11T04:08:22.562Z,69.30
2017-06-11T04:10:48.974Z,64.60
2017-06-11T04:13:15.484Z,60.90
2017-06-11T04:15:42.030Z,57.70
2017-06-11T04:18:08.716Z,55.30
2017-06-11T04:20:35.158Z,52.90
2017-06-11T04:23:01.705Z,50.70
2017-06-11T04:25:28.467Z,48.70
2017-06-11T04:27:54.923Z,46.90
2017-06-11T04:30:21.355Z,45.40
2017-06-11T04:32:47.955Z,43.90
2017-06-11T04:35:14.407Z,41.80
2017-06-11T04:37:40.845Z,40.30
2017-06-11T04:40:07.366Z,38.90
2017-06-11T04:42:33.781Z,37.40
2017-06-11T04:45:00.216Z,36.20
2017-06-11T04:47:26.674Z,35.40
2017-06-11T04:49:53.145Z,34.10
2017-06-11T04:52:20.164Z,32.60
2017-06-11T04:54:46.983Z,32.10
2017-06-11T04:57:13.628Z,31.20
2017-06-11T04:59:40.414Z,30.10
2017-06-11T05:02:06.946Z,29.50
2017-06-11T05:04:33.381Z,29.00
2017-06-11T05:07:00.678Z,28.90
2017-06-11T05:09:27.499Z,28.80
2017-06-11T05:11:54.708Z,28.50
2017-06-11T05:14:21.943Z,28.20
2017-06-11T05:16:48.371Z,28.20
2017-06-11T05:19:14.899Z,28.10
2017-06-11T05:21:41.607Z,27.70
2017-06-11T05:24:08.061Z,27.50
2017-06-11T05:26:34.495Z,27.20
2017-06-11T05:29:01.275Z,26.80
2017-06-11T05:31:27.743Z,26.40
2017-06-11T05:33:54.187Z,26.30
2017-06-11T05:36:20.674Z,25.90
2017-06-11T05:38:47.176Z,25.80
2017-06-11T05:41:13.628Z,25.30
2017-06-11T05:43:40.283Z,25.60
2017-06-11T05:46:06.717Z,25.40
2017-06-11T05:48:33.432Z,24.80
2017-06-11T05:51:00.206Z,24.10
2017-06-11T05:53:26.638Z,24.20
2017-06-11T05:55:53.422Z,23.90
2017-06-11T05:58:19.842Z,23.80
2017-06-11T06:00:46.970Z,23.80
2017-06-11T06:03:14.207Z,22.90
2017-06-11T06:05:40.672Z,22.90
2017-06-11T06:08:07.170Z,23.00
2017-06-11T06:10:33.614Z,22.80
2017-06-11T06:13:00.192Z,22.80
2017-06-11T06:15:27.464Z,22.50
2017-06-11T06:17:54.145Z,22.40
2017-06-11T06:20:21.314Z,21.70
2017-06-11T06:22:47.872Z,20.80
2017-06-11T06:25:14.343Z,20.50
2017-06-11T06:27:40.835Z,20.80
2017-06-11T06:30:08.100Z,20.70
2017-06-11T06:32:34.661Z,20.60
2017-06-11T06:35:01.101Z,20.50
2017-06-11T06:37:27.602Z,20.00
2017-06-11T06:39:54.817Z,19.40
2017-06-11T06:42:21.405Z,19.40
2017-06-11T06:44:47.864Z,19.10
2017-06-11T06:47:14.367Z,18.70
2017-06-11T06:49:41.076Z,18.00
2017-06-11T06:52:07.596Z,17.70
2017-06-11T06:54:34.052Z,17.70
2017-06-11T06:57:00.492Z,18.30
2017-06-11T06:59:27.322Z,17.60
2017-06-11T07:01:54.544Z,17.70
2017-06-11T07:04:21.212Z,17.10
2017-06-11T07:06:48.012Z,16.90
2017-06-11T07:09:15.260Z,16.40
2017-06-11T07:11:41.879Z,16.30
2017-06-11T07:14:08.437Z,16.30
2017-06-11T07:16:35.537Z,15.90
2017-06-11T07:19:02.017Z,15.80
2017-06-11T07:21:28.481Z,16.00
2017-06-11T07:23:55.245Z,15.70
2017-06-11T07:26:21.733Z,15.80
2017-06-11T07:28:48.225Z,15.80
2017-06-11T07:31:14.640Z,15.20
2017-06-11T07:33:41.121Z,14.80
2017-06-11T07:36:08.312Z,14.20
2017-06-11T07:38:34.777Z,14.10
2017-06-11T07:41:01.321Z,13.80
2017-06-11T07:43:27.773Z,13.50
2017-06-11T07:45:54.262Z,13.70
2017-06-11T07:48:20.759Z,14.30
2017-06-11T07:50:47.248Z,14.00
2017-06-11T07:53:14.048Z,13.80
2017-06-11T07:55:40.517Z,14.10
2017-06-11T07:58:07.842Z,14.50
2017-06-11T08:00:34.532Z,14.50
2017-06-11T08:03:01.031Z,14.80
2017-06-11T08:05:27.501Z,15.00
2017-06-11T08:07:54.671Z,15.30
2017-06-11T08:10:21.176Z,15.10
2017-06-11T08:12:47.609Z,15.40
2017-06-11T08:15:14.166Z,16.30
2017-06-11T08:17:41.027Z,17.00
2017-06-11T08:20:07.449Z,17.50
2017-06-11T08:22:34.187Z,17.70
2017-06-11T08:25:00.621Z,17.80
2017-06-11T08:27:27.126Z,18.40
2017-06-11T08:29:53.614Z,19.40
2017-06-11T08:32:21.023Z,21.10
2017-06-11T08:34:47.507Z,22.10
2017-06-11T08:37:13.994Z,22.70
2017-06-11T08:39:40.466Z,23.20
2017-06-11T08:42:06.946Z,24.10
2017-06-11T08:44:33.686Z,24.60
2017-06-11T08:47:00.092Z,25.40
2017-06-11T08:49:27.056Z,26.20
2017-06-11T08:51:53.465Z,26.00
2017-06-11T08:54:19.928Z,26.40
2017-06-11T08:56:46.374Z,26.60
2017-06-11T08:59:13.088Z,27.00
2017-06-11T09:01:39.512Z,27.20
2017-06-11T09:04:05.977Z,27.70
2017-06-11T09:06:32.413Z,27.40
2017-06-11T09:08:59.066Z,27.80
2017-06-11T09:11:25.521Z,27.50
2017-06-11T09:13:52.038Z,27.90
2017-06-11T09:16:19.276Z,28.70
2017-06-11T09:18:46.037Z,28.70
2017-06-11T09:21:12.508Z,28.80
2017-06-11T09:23:38.974Z,29.00
2017-06-11T09:26:06.199Z,29.30
2017-06-11T09:28:32.631Z,29.30
2017-06-11T09:30:59.520Z,29.60
2017-06-11T09:33:26.076Z,29.30
2017-06-11T09:35:52.868Z,29.30
2017-06-11T09:38:19.384Z,29.20
2017-06-11T09:40:46.776Z,29.90
2017-06-11T09:43:13.288Z,29.90
2017-06-11T09:45:39.788Z,30.80
2017-06-11T09:48:06.260Z,31.20
2017-06-11T09:50:32.727Z,31.50
2017-06-11T09:52:59.565Z,32.70
2017-06-11T09:55:26.067Z,31.80
2017-06-11T09:57:52.699Z,31.50
2017-06-11T10:00:20.775Z,31.60
2017-06-11T10:02:47.199Z,32.40
2017-06-11T10:05:13.782Z,31.90
2017-06-11T10:07:40.757Z,31.60
2017-06-11T10:10:07.418Z,31.80
2017-06-11T10:12:34.188Z,32.20
2017-06-11T10:15:00.682Z,31.60
2017-06-11T10:17:27.321Z,31.70
2017-06-11T10:19:53.958Z,32.10
2017-06-11T10:22:21.541Z,32.00
2017-06-11T10:24:48.914Z,31.90
2017-06-11T10:27:15.627Z,32.70
2017-06-11T10:29:42.238Z,32.00
2017-06-11T10:32:09.001Z,32.30
2017-06-11T10:34:35.635Z,32.20
2017-06-11T10:37:03.042Z,31.80
2017-06-11T10:39:29.597Z,31.80
2017-06-11T10:41:56.463Z,32.10
2017-06-11T10:44:23.022Z,32.10
2017-06-11T10:46:49.581Z,32.10
2017-06-11T10:49:16.799Z,31.50
2017-06-11T10:51:43.309Z,31.00
2017-06-11T10:54:10.173Z,30.70
2017-06-11T10:56:36.833Z,31.00
2017-06-11T10:59:03.312Z,30.00
2017-06-11T11:01:29.813Z,29.90
2017-06-11T11:03:56.305Z,30.00
2017-06-11T11:06:23.079Z,30.10
2017-06-11T11:08:50.041Z,30.40
2017-06-11T11:11:16.601Z,30.00
2017-06-11T11:13:43.669Z,30.00
2017-06-11T11:16:10.427Z,29.60
2017-06-11T11:18:36.895Z,29.70
2017-06-11T11:21:03.859Z,30.40
2017-06-11T11:23:31.132Z,30.20
2017-06-11T11:25:57.786Z,30.10
2017-06-11T11:28:24.307Z,30.30
2017-06-11T11:30:51.924Z,29.70
2017-06-11T11:33:18.444Z,29.50
2017-06-11T11:35:45.143Z,28.80
2017-06-11T11:38:11.592Z,29.30
2017-06-11T11:40:38.874Z,29.70
2017-06-11T11:43:05.345Z,29.60
2017-06-11T11:45:31.994Z,29.00
2017-06-11T11:47:58.552Z,28.30
2017-06-11T11:50:25.211Z,28.20
2017-06-11T11:52:51.975Z,28.20
2017-06-11T11:55:18.495Z,28.20
2017-06-11T11:57:45.295Z,29.00
2017-06-11T12:00:11.764Z,29.30
2017-06-11T12:02:38.255Z,28.70
2017-06-11T12:05:04.710Z,28.60
2017-06-11T12:07:31.149Z,28.70
2017-06-11T12:09:57.610Z,29.90
2017-06-11T12:12:24.036Z,30.10
2017-06-11T12:14:50.462Z,29.00
2017-06-11T12:17:16.904Z,29.90
2017-06-11T12:19:43.324Z,29.90
2017-06-11T12:22:09.812Z,29.70
2017-06-11T12:24:36.252Z,29.80
2017-06-11T12:27:02.671Z,29.80
2017-06-11T12:29:29.101Z,30.30
2017-06-11T12:31:56.281Z,29.80
2017-06-11T12:34:23.493Z,29.50
2017-06-11T12:36:49.942Z,29.50
2017-06-11T12:39:16.385Z,30.00
2017-06-11T12:41:42.809Z,30.00
2017-06-11T12:44:10.003Z,30.20
2017-06-11T12:46:36.503Z,29.70
2017-06-11T12:49:02.975Z,29.80
2017-06-11T12:51:29.480Z,29.80
2017-06-11T12:53:55.914Z,29.80
2017-06-11T12:56:23.087Z,29.60
2017-06-11T12:58:50.246Z,30.00
2017-06-11T13:01:16.733Z,29.90
2017-06-11T13:03:43.212Z,30.50
2017-06-11T13:06:09.664Z,30.60
2017-06-11T13:08:36.076Z,31.10
2017-06-11T13:11:02.544Z,31.40
2017-06-11T13:13:29.716Z,31.20
2017-06-11T13:15:56.888Z,31.00
2017-06-11T13:18:24.592Z,31.30
2017-06-11T13:20:51.025Z,31.20
2017-06-11T13:23:18.193Z,30.90
2017-06-11T13:25:45.361Z,31.40
2017-06-11T13:28:11.774Z,31.30
2017-06-11T13:30:38.298Z,31.30
2017-06-11T13:33:05.367Z,31.20
2017-06-11T13:35:31.799Z,30.50
2017-06-11T13:37:58.267Z,30.60
2017-06-11T13:40:25.451Z,30.20
2017-06-11T13:42:51.915Z,30.20
2017-06-11T13:45:18.469Z,29.50
2017-06-11T13:47:44.903Z,29.90
2017-06-11T13:50:12.159Z,30.00
2017-06-11T13:52:38.603Z,29.90
2017-06-11T13:55:05.040Z,29.90
2017-06-11T13:57:31.564Z,30.40
2017-06-11T13:59:58.003Z,30.00
2017-06-11T14:02:25.193Z,29.70
2017-06-11T14:04:51.860Z,29.70
2017-06-11T14:07:18.306Z,30.50
2017-06-11T14:09:45.482Z,30.60
2017-06-11T14:12:11.930Z,30.60
2017-06-11T14:14:39.212Z,30.00
2017-06-11T14:17:05.728Z,30.00
2017-06-11T14:19:32.227Z,30.30
2017-06-11T14:21:58.888Z,30.30
2017-06-11T14:24:25.511Z,30.00
2017-06-11T14:26:52.107Z,30.20
2017-06-11T14:29:18.665Z,30.00
2017-06-11T14:31:45.087Z,30.40
2017-06-11T14:34:11.559Z,30.10
2017-06-11T14:36:39.262Z,30.40
2017-06-11T14:39:05.731Z,30.00
2017-06-11T14:41:32.654Z,29.60
2017-06-11T14:43:59.959Z,30.60
2017-06-11T14:46:26.810Z,30.00
2017-06-11T14:48:54.172Z,31.50
2017-06-11T14:51:20.657Z,31.50
2017-06-11T14:53:47.631Z,30.70
2017-06-11T14:56:14.286Z,30.60
2017-06-11T14:58:40.767Z,30.60
2017-06-11T15:01:07.230Z,30.60
2017-06-11T15:03:33.756Z,31.30
2017-06-11T15:06:00.520Z,31.00
2017-06-11T15:08:27.016Z,30.70
2017-06-11T15:10:53.455Z,31.00
2017-06-11T15:13:20.311Z,31.20
2017-06-11T15:15:46.853Z,31.80
2017-06-11T15:18:13.317Z,31.60
2017-06-11T15:20:39.875Z,31.20
2017-06-11T15:23:06.523Z,30.60
2017-06-11T15:25:33.833Z,31.40
2017-06-11T15:28:00.301Z,31.40
2017-06-11T15:30:26.749Z,31.70
2017-06-11T15:32:53.249Z,31.20
2017-06-11T15:35:19.861Z,30.80
2017-06-11T15:37:46.939Z,30.90
2017-06-11T15:40:13.368Z,31.40
2017-06-11T15:42:39.916Z,31.00
2017-06-11T15:45:06.538Z,30.70
2017-06-11T15:47:32.995Z,31.20
2017-06-11T15:49:59.592Z,30.60
2017-06-11T15:52:26.106Z,30.60
2017-06-11T15:54:52.914Z,30.70
2017-06-11T15:57:19.778Z,30.50
2017-06-11T15:59:47.563Z,30.20
2017-06-11T16:02:14.336Z,30.00
2017-06-11T16:04:40.812Z,30.10
2017-06-11T16:07:07.250Z,30.30
2017-06-11T16:09:33.706Z,30.70
2017-06-11T16:12:00.150Z,30.90
2017-06-11T16:14:26.711Z,31.20
2017-06-11T16:16:53.229Z,31.30
2017-06-11T16:19:19.677Z,31.60
2017-06-11T16:21:46.181Z,31.80
2017-06-11T16:24:12.744Z,32.50
2017-06-11T16:26:39.299Z,32.00
2017-06-11T16:29:05.761Z,32.50
2017-06-11T16:31:32.310Z,33.30
2017-06-11T16:33:59.387Z,33.60
2017-06-11T16:36:26.046Z,32.90
2017-06-11T16:38:52.707Z,33.50
2017-06-11T16:41:19.176Z,34.10
2017-06-11T16:43:45.823Z,34.50
2017-06-11T16:46:12.264Z,34.70
2017-06-11T16:48:39.660Z,35.50
2017-06-11T16:51:06.106Z,35.40
2017-06-11T16:53:33.304Z,35.40
2017-06-11T16:55:59.916Z,35.30
2017-06-11T16:58:26.398Z,35.50
2017-06-11T17:00:52.861Z,35.60
2017-06-11T17:03:19.348Z,35.90
2017-06-11T17:05:45.869Z,36.20
2017-06-11T17:08:12.301Z,36.40
2017-06-11T17:10:39.481Z,36.40
2017-06-11T17:13:05.923Z,36.40
2017-06-11T17:15:32.361Z,36.20
2017-06-11T17:17:59.269Z,36.30
2017-06-11T17:20:26.552Z,36.70
2017-06-11T17:22:53.019Z,36.70
2017-06-11T17:25:19.435Z,36.40
2017-06-11T17:27:46.018Z,37.00
2017-06-11T17:30:12.479Z,37.50
2017-06-11T17:32:39.035Z,37.30
2017-06-11T17:35:05.473Z,37.40
2017-06-11T17:37:32.869Z,37.70
2017-06-11T17:39:59.425Z,37.70
2017-06-11T17:42:25.989Z,37.90
2017-06-11T17:44:52.528Z,37.90
2017-06-11T17:47:19.924Z,37.70
2017-06-11T17:49:46.497Z,37.70
2017-06-11T17:52:13.143Z,37.70
2017-06-11T17:54:39.803Z,38.00
2017-06-11T17:57:06.359Z,37.80
2017-06-11T17:59:33.583Z,38.10
2017-06-11T18:02:00.398Z,38.40
2017-06-11T18:04:26.863Z,38.30
2017-06-11T18:06:53.512Z,38.40
2017-06-11T18:09:20.481Z,38.60
2017-06-11T18:11:46.964Z,38.60
2017-06-11T18:14:14.029Z,38.70
2017-06-11T18:16:40.484Z,39.10
2017-06-11T18:19:06.937Z,39.30
2017-06-11T18:21:33.576Z,39.40
2017-06-11T18:24:00.034Z,39.90
2017-06-11T18:26:26.477Z,40.10
2017-06-11T18:28:53.873Z,40.30
2017-06-11T18:31:20.347Z,40.20
2017-06-11T18:33:46.826Z,40.40
2017-06-11T18:36:13.282Z,40.60
2017-06-11T18:38:40.308Z,40.90
2017-06-11T18:41:06.860Z,40.90
2017-06-11T18:43:34.113Z,41.70
2017-06-11T18:46:00.902Z,41.60
2017-06-11T18:48:27.468Z,42.10
2017-06-11T18:50:53.928Z,42.40
2017-06-11T18:53:20.479Z,42.60
2017-06-11T18:55:47.140Z,42.90
2017-06-11T18:58:13.770Z,42.90
2017-06-11T19:00:41.786Z,43.60
2017-06-11T19:03:08.350Z,43.50
2017-06-11T19:05:35.219Z,43.50
2017-06-11T19:08:01.781Z,43.90
2017-06-11T19:10:28.325Z,44.10
2017-06-11T19:12:54.831Z,44.00
2017-06-11T19:15:21.552Z,43.90
2017-06-11T19:17:48.034Z,44.10
2017-06-11T19:20:14.664Z,44.40
2017-06-11T19:22:41.222Z,44.40
2017-06-11T19:25:07.781Z,44.70
2017-06-11T19:27:34.258Z,44.90
2017-06-11T19:30:00.879Z,44.70
2017-06-11T19:32:28.277Z,44.80
2017-06-11T19:34:54.832Z,44.10
2017-06-11T19:37:21.393Z,43.70
2017-06-11T19:39:48.051Z,43.50
2017-06-11T19:42:14.504Z,43.50
2017-06-11T19:44:41.068Z,43.50
2017-06-11T19:47:07.884Z,44.10
2017-06-11T19:49:34.349Z,43.40
2017-06-11T19:52:00.885Z,43.40
2017-06-11T19:54:27.503Z,43.30
2017-06-11T19:56:54.065Z,43.60
2017-06-11T19:59:20.523Z,43.50
2017-06-11T20:01:47.182Z,43.40
2017-06-11T20:04:14.039Z,43.60
2017-06-11T20:06:40.606Z,43.60
2017-06-11T20:09:07.272Z,43.60
2017-06-11T20:11:33.933Z,43.90
2017-06-11T20:14:00.587Z,43.90
2017-06-11T20:16:27.148Z,43.50
2017-06-11T20:18:54.009Z,43.40
2017-06-11T20:21:20.518Z,43.80
2017-06-11T20:23:47.130Z,43.80
2017-06-11T20:26:14.606Z,43.80
2017-06-11T20:28:41.266Z,44.20
2017-06-11T20:31:07.822Z,43.70
2017-06-11T20:33:34.380Z,43.70
2017-06-11T20:36:01.314Z,43.50
2017-06-11T20:38:28.545Z,43.10
2017-06-11T20:40:55.080Z,43.10
2017-06-11T20:43:21.637Z,43.40
2017-06-11T20:45:48.077Z,43.10
2017-06-11T20:48:15.339Z,43.60
2017-06-11T20:50:43.052Z,42.90
2017-06-11T20:53:09.609Z,43.30
2017-06-11T20:55:36.063Z,43.60
2017-06-11T20:58:02.543Z,44.30
2017-06-11T21:00:29.083Z,43.40
2017-06-11T21:02:55.745Z,43.30
2017-06-11T21:05:22.208Z,43.10
2017-06-11T21:07:48.662Z,43.50
2017-06-11T21:10:15.112Z,43.40
2017-06-11T21:12:41.582Z,43.10
2017-06-11T21:15:08.703Z,43.10
2017-06-11T21:17:35.294Z,43.10
2017-06-11T21:20:01.758Z,43.20
2017-06-11T21:22:28.202Z,43.30
2017-06-11T21:24:54.650Z,43.60
2017-06-11T21:27:21.844Z,44.00
2017-06-11T21:29:48.298Z,43.90
2017-06-11T21:32:14.726Z,43.80
2017-06-11T21:34:41.913Z,43.80
2017-06-11T21:37:09.202Z,43.50
2017-06-11T21:39:35.620Z,43.40
2017-06-11T21:42:02.074Z,43.20
2017-06-11T21:44:28.533Z,43.40
2017-06-11T21:46:55.015Z,43.50
2017-06-11T21:49:22.215Z,43.90
2017-06-11T21:51:49.054Z,43.90
2017-06-11T21:54:15.497Z,43.70
2017-06-11T21:56:42.677Z,43.70
2017-06-11T21:59:09.876Z,44.20
2017-06-11T22:01:36.338Z,44.10
2017-06-11T22:04:02.791Z,43.70
2017-06-11T22:06:29.209Z,43.90
2017-06-11T22:08:56.419Z,43.70
2017-06-11T22:11:22.949Z,43.50
2017-06-11T22:13:49.412Z,43.60
2017-06-11T22:16:15.970Z,43.40
2017-06-11T22:18:42.820Z,43.50
2017-06-11T22:21:10.086Z,43.60
2017-06-11T22:23:36.520Z,43.60
2017-06-11T22:26:02.964Z,43.70
2017-06-11T22:28:29.428Z,43.60
2017-06-11T22:30:56.041Z,43.70
2017-06-11T22:33:22.513Z,43.80
2017-06-11T22:35:48.963Z,43.90
2017-06-11T22:38:15.729Z,43.90
2017-06-11T22:40:42.214Z,44.20
2017-06-11T22:43:08.681Z,44.70
2017-06-11T22:45:35.136Z,44.20
2017-06-11T22:48:01.609Z,44.40
2017-06-11T22:50:28.087Z,44.50
2017-06-11T22:52:55.247Z,44.60
2017-06-11T22:55:22.432Z,44.70
2017-06-11T22:57:49.595Z,44.70
2017-06-11T23:00:16.822Z,44.70
2017-06-11T23:02:43.224Z,44.70
2017-06-11T23:05:10.421Z,45.10
2017-06-11T23:07:36.857Z,45.00
2017-06-11T23:10:04.063Z,45.10
2017-06-11T23:12:30.516Z,45.10
2017-06-11T23:14:56.980Z,44.90
2017-06-11T23:17:23.472Z,44.80
2017-06-11T23:19:49.909Z,44.90
2017-06-11T23:22:16.366Z,44.90
2017-06-11T23:24:42.794Z,44.90
2017-06-11T23:27:09.278Z,44.90
2017-06-11T23:29:35.752Z,45.00
2017-06-11T23:32:02.236Z,45.10
2017-06-11T23:34:29.623Z,45.40
2017-06-11T23:36:56.183Z,45.40
2017-06-11T23:39:22.631Z,45.70
2017-06-11T23:41:49.811Z,45.90
2017-06-11T23:44:16.301Z,45.80
2017-06-11T23:46:42.823Z,46.00
2017-06-11T23:49:09.281Z,46.10
2017-06-11T23:51:35.735Z,46.20
2017-06-11T23:54:02.187Z,46.30
2017-06-11T23:56:29.355Z,46.60
2017-06-11T23:58:56.217Z,46.60
